Las Vegas Municipal Airport Las Vegas US
ICAO: KLVS
IATA: LVS
Category: Medium
Scheduled Services: No

Elevation: 6877 ft
TransAlt. 18000 ft.

Airport Communications:
ASOS:118.525
ALBUQUERQUE CNTR:132.8
ALBUQUERQUE RDO:122.6
CTAF/UNICOM:122.8

KLVS Zoom In..

Runways:

(A) RW 02 length 5006 ft width 75 ft
---- / hdg 22

(B) RW 14 length 8199 ft width 75 ft
---- / hdg 139

(C) RW 20 length 5006 ft width 75 ft
---- / hdg 202

(D) RW 32 length 8199 ft width 75 ft
---- / hdg 319

Location; KLVS
Day. 16 / Time. 17.53 Zulu
* Altimeter: 30.37
* Temperature: 23° c. 73.4°f.
* Wind from: 150° Speed 05 kn.
Dewpoint: 13° c.
Visibility: 10 Statute Miles.
Clouds: Clear (automated report).

KLVS 161753Z AUTO 15005KT 10SM CLR 23/13 A3037 RMK AO2 SLP174 T02330133 10239 20156 50000


Wind From 150°
Speed 05 kn.

 
 
jpsmedia.com for Web Design worldairports.se 2018   terms of use